createdAt,value
2023-04-15T00:00:58.535Z,5.35
2023-04-15T00:03:25.692Z,5.72
2023-04-15T00:05:52.724Z,5.30
2023-04-15T00:08:19.580Z,5.50
2023-04-15T00:10:46.732Z,5.18
2023-04-15T00:13:13.487Z,5.70
2023-04-15T00:15:39.990Z,5.75
2023-04-15T00:18:08.211Z,5.93
2023-04-15T00:20:35.405Z,5.60
2023-04-15T00:23:02.646Z,5.60
2023-04-15T00:25:29.343Z,5.55
2023-04-15T00:27:55.885Z,5.60
2023-04-15T00:30:23.797Z,6.20
2023-04-15T00:32:50.412Z,5.55
2023-04-15T00:35:21.623Z,5.93
2023-04-15T00:37:48.457Z,5.32
2023-04-15T00:40:18.846Z,5.88
2023-04-15T00:42:45.693Z,5.55
2023-04-15T00:45:12.884Z,5.00
2023-04-15T00:47:43.757Z,5.22
2023-04-15T00:50:11.059Z,5.38
2023-04-15T00:52:41.641Z,5.47
2023-04-15T00:55:08.622Z,5.28
2023-04-15T00:57:36.317Z,5.32
2023-04-15T01:00:04.646Z,5.28
2023-04-15T01:02:31.877Z,4.75
2023-04-15T01:04:58.543Z,5.90
2023-04-15T01:07:25.030Z,6.13
2023-04-15T01:09:52.300Z,5.72
2023-04-15T01:12:19.280Z,5.78
2023-04-15T01:14:45.796Z,5.40
2023-04-15T01:17:13.189Z,5.22
2023-04-15T01:19:40.636Z,5.10
2023-04-15T01:22:07.881Z,5.45
2023-04-15T01:24:35.213Z,5.50
2023-04-15T01:27:01.810Z,4.78
2023-04-15T01:29:31.587Z,4.90
2023-04-15T01:31:58.127Z,6.15
2023-04-15T01:34:29.481Z,5.32
2023-04-15T01:36:56.005Z,5.28
2023-04-15T01:39:22.574Z,5.10
2023-04-15T01:41:49.099Z,5.30
2023-04-15T01:44:16.390Z,5.28
2023-04-15T01:46:43.003Z,4.97
2023-04-15T01:49:09.500Z,5.63
2023-04-15T01:51:36.508Z,5.25
2023-04-15T01:54:03.121Z,5.50
2023-04-15T01:56:30.053Z,5.70
2023-04-15T01:58:56.940Z,6.18
2023-04-15T02:01:23.602Z,6.18
2023-04-15T02:03:50.579Z,5.75
2023-04-15T02:06:18.368Z,6.13
2023-04-15T02:08:45.180Z,6.47
2023-04-15T02:11:11.744Z,5.45
2023-04-15T02:13:38.197Z,5.97
2023-04-15T02:16:04.954Z,5.38
2023-04-15T02:18:34.482Z,5.43
2023-04-15T02:21:01.896Z,5.53
2023-04-15T02:23:28.351Z,6.07
2023-04-15T02:25:54.799Z,6.18
2023-04-15T02:28:21.858Z,6.15
2023-04-15T02:30:52.796Z,5.57
2023-04-15T02:33:20.199Z,5.25
2023-04-15T02:35:47.302Z,5.22
2023-04-15T02:38:14.749Z,5.18
2023-04-15T02:40:41.511Z,4.80
2023-04-15T02:43:08.056Z,4.85
2023-04-15T02:45:35.937Z,4.80
2023-04-15T02:48:06.557Z,5.03
2023-04-15T02:50:33.498Z,5.10
2023-04-15T02:53:01.421Z,5.30
2023-04-15T02:55:29.071Z,4.75
2023-04-15T02:57:55.886Z,5.03
2023-04-15T03:00:25.119Z,4.57
2023-04-15T03:02:56.371Z,4.90
2023-04-15T03:05:26.569Z,4.57
2023-04-15T03:07:53.655Z,4.10
2023-04-15T03:10:21.343Z,4.63
2023-04-15T03:12:48.131Z,4.90
2023-04-15T03:15:19.573Z,4.28
2023-04-15T03:17:49.708Z,4.32
2023-04-15T03:20:17.033Z,5.10
2023-04-15T03:22:43.689Z,4.80
2023-04-15T03:25:13.290Z,4.90
2023-04-15T03:27:39.851Z,4.78
2023-04-15T03:30:07.585Z,4.90
2023-04-15T03:32:36.593Z,4.60
2023-04-15T03:35:03.117Z,4.90
2023-04-15T03:37:29.582Z,4.40
2023-04-15T03:39:56.069Z,4.40
2023-04-15T03:42:22.709Z,5.00
2023-04-15T03:44:49.292Z,5.20
2023-04-15T03:47:15.748Z,5.20
2023-04-15T03:49:42.249Z,5.50
2023-04-15T03:52:08.721Z,5.15
2023-04-15T03:54:35.183Z,5.05
2023-04-15T03:57:01.641Z,5.20
2023-04-15T03:59:28.122Z,5.25
2023-04-15T04:01:54.658Z,5.13
2023-04-15T04:04:21.691Z,5.03
2023-04-15T04:06:48.244Z,4.57
2023-04-15T04:09:14.770Z,4.95
2023-04-15T04:11:41.320Z,4.55
2023-04-15T04:14:07.801Z,5.38
2023-04-15T04:16:34.308Z,4.85
2023-04-15T04:19:01.332Z,5.18
2023-04-15T04:21:28.164Z,4.85
2023-04-15T04:23:54.828Z,4.70
2023-04-15T04:26:21.507Z,5.00
2023-04-15T04:28:48.012Z,4.80
2023-04-15T04:31:14.492Z,9.57
2023-04-15T04:33:40.957Z,7.28
2023-04-15T04:36:07.665Z,6.38
2023-04-15T04:38:34.235Z,5.90
2023-04-15T04:41:00.908Z,5.55
2023-04-15T04:43:27.501Z,5.70
2023-04-15T04:45:54.015Z,5.90
2023-04-15T04:48:20.764Z,5.65
2023-04-15T04:50:47.376Z,5.88
2023-04-15T04:53:13.863Z,6.15
2023-04-15T04:55:40.459Z,5.85
2023-04-15T04:58:06.928Z,5.78
2023-04-15T05:00:33.645Z,5.57
2023-04-15T05:03:00.644Z,5.38
2023-04-15T05:05:27.373Z,6.07
2023-04-15T05:07:53.839Z,6.25
2023-04-15T05:10:20.546Z,6.20
2023-04-15T05:12:47.073Z,6.57
2023-04-15T05:15:13.615Z,6.10
2023-04-15T05:17:40.212Z,7.43
2023-04-15T05:20:07.578Z,8.60
2023-04-15T05:22:34.172Z,10.88
2023-04-15T05:25:00.850Z,9.73
2023-04-15T05:27:27.370Z,8.45
2023-04-15T05:29:53.848Z,7.20
2023-04-15T05:32:20.713Z,6.90
2023-04-15T05:34:47.272Z,7.22
2023-04-15T05:37:13.864Z,6.70
2023-04-15T05:39:40.330Z,6.68
2023-04-15T05:42:06.916Z,6.78
2023-04-15T05:44:33.451Z,6.40
2023-04-15T05:46:59.946Z,7.28
2023-04-15T05:49:26.434Z,6.95
2023-04-15T05:51:52.939Z,7.40
2023-04-15T05:54:20.365Z,7.95
2023-04-15T05:56:46.997Z,7.88
2023-04-15T05:59:13.606Z,7.82
2023-04-15T06:01:40.210Z,8.52
2023-04-15T06:04:07.132Z,8.15
2023-04-15T06:06:33.689Z,8.07
2023-04-15T06:09:00.558Z,7.90
2023-04-15T06:11:27.365Z,7.75
2023-04-15T06:13:53.871Z,8.02
2023-04-15T06:16:20.390Z,8.30
2023-04-15T06:18:46.912Z,8.20
2023-04-15T06:21:13.510Z,8.80
2023-04-15T06:23:41.288Z,9.38
2023-04-15T06:26:08.004Z,9.15
2023-04-15T06:28:34.583Z,9.30
2023-04-15T06:31:01.917Z,9.27
2023-04-15T06:33:28.688Z,8.98
2023-04-15T06:35:55.302Z,8.05
2023-04-15T06:38:21.804Z,7.60
2023-04-15T06:40:48.376Z,7.70
2023-04-15T06:43:15.330Z,7.38
2023-04-15T06:45:41.808Z,7.68
2023-04-15T06:48:08.416Z,7.43
2023-04-15T06:50:35.678Z,8.20
2023-04-15T06:53:03.087Z,7.63
2023-04-15T06:55:29.791Z,8.50
2023-04-15T06:57:56.272Z,8.43
2023-04-15T07:00:22.913Z,22.70
2023-04-15T07:02:49.422Z,16.73
2023-04-15T07:05:16.072Z,13.98
2023-04-15T07:07:42.766Z,9.85
2023-04-15T07:10:09.939Z,8.10
2023-04-15T07:12:36.577Z,7.95
2023-04-15T07:15:03.709Z,7.88
2023-04-15T07:17:30.272Z,7.43
2023-04-15T07:19:56.751Z,7.47
2023-04-15T07:22:26.761Z,7.47
2023-04-15T07:24:54.303Z,7.75
2023-04-15T07:27:20.932Z,7.70
2023-04-15T07:29:47.454Z,7.85
2023-04-15T07:32:13.986Z,7.45
2023-04-15T07:34:41.528Z,7.43
2023-04-15T07:37:08.413Z,8.10
2023-04-15T07:39:34.975Z,7.10
2023-04-15T07:42:02.155Z,7.85
2023-04-15T07:44:28.773Z,7.75
2023-04-15T07:46:55.992Z,8.02
2023-04-15T07:49:22.843Z,7.75
2023-04-15T07:51:49.962Z,7.93
2023-04-15T07:54:16.520Z,8.48
2023-04-15T07:56:42.964Z,8.27
2023-04-15T07:59:10.043Z,8.32
2023-04-15T08:01:36.876Z,8.40
2023-04-15T08:04:03.844Z,8.52
2023-04-15T08:06:30.764Z,8.13
2023-04-15T08:08:57.432Z,8.52
2023-04-15T08:11:24.504Z,8.48
2023-04-15T08:13:52.334Z,8.73
2023-04-15T08:16:19.262Z,8.57
2023-04-15T08:18:49.646Z,8.05
2023-04-15T08:21:16.792Z,8.88
2023-04-15T08:23:43.969Z,9.43
2023-04-15T08:26:10.614Z,8.50
2023-04-15T08:28:41.553Z,8.75
2023-04-15T08:31:08.585Z,9.07
2023-04-15T08:33:35.321Z,9.35
2023-04-15T08:36:01.867Z,9.40
2023-04-15T08:38:28.373Z,9.25
2023-04-15T08:40:56.442Z,9.05
2023-04-15T08:43:26.401Z,8.82
2023-04-15T08:45:53.125Z,9.38
2023-04-15T08:48:19.969Z,9.95
2023-04-15T08:50:48.282Z,9.13
2023-04-15T08:53:15.560Z,9.50
2023-04-15T08:55:47.329Z,9.75
2023-04-15T08:58:14.305Z,9.63
2023-04-15T09:00:41.282Z,9.52
2023-04-15T09:03:08.912Z,9.38
2023-04-15T09:05:37.115Z,9.40
2023-04-15T09:08:05.331Z,9.57
2023-04-15T09:10:33.256Z,9.98
2023-04-15T09:12:59.780Z,10.95
2023-04-15T09:15:32.259Z,11.30
2023-04-15T09:17:58.930Z,9.43
2023-04-15T09:20:25.445Z,10.32
2023-04-15T09:22:52.061Z,10.55
2023-04-15T09:25:24.837Z,10.32
2023-04-15T09:27:52.874Z,10.32
2023-04-15T09:30:19.498Z,11.30
2023-04-15T09:32:53.512Z,11.15
2023-04-15T09:35:20.821Z,10.90
2023-04-15T09:37:47.511Z,9.88
2023-04-15T09:40:14.091Z,9.05
2023-04-15T09:42:57.248Z,9.27
2023-04-15T09:45:25.674Z,9.93
2023-04-15T09:47:53.715Z,10.52
2023-04-15T09:50:20.956Z,9.48
2023-04-15T09:52:47.657Z,9.45
2023-04-15T09:55:15.877Z,8.35
2023-04-15T09:57:44.245Z,8.60
2023-04-15T10:00:11.455Z,8.80
2023-04-15T10:02:40.705Z,9.13
2023-04-15T10:07:35.164Z,9.00
2023-04-15T10:10:05.363Z,9.50
2023-04-15T10:12:33.404Z,9.63
2023-04-15T10:15:04.924Z,9.32
2023-04-15T10:17:37.177Z,8.45
2023-04-15T10:20:05.613Z,9.00
2023-04-15T10:22:33.278Z,9.02
2023-04-15T10:25:01.016Z,8.57
2023-04-15T10:27:28.017Z,8.20
2023-04-15T10:29:54.828Z,9.45
2023-04-15T10:32:22.386Z,7.85
2023-04-15T10:34:49.345Z,7.57
2023-04-15T10:37:33.820Z,7.35
2023-04-15T10:40:00.583Z,6.78
2023-04-15T10:42:34.505Z,7.13
2023-04-15T10:45:01.004Z,6.78
2023-04-15T10:47:28.467Z,7.05
2023-04-15T10:49:59.341Z,7.13
2023-04-15T10:52:27.833Z,6.50
2023-04-15T10:55:19.182Z,7.18
2023-04-15T10:57:45.861Z,6.75
2023-04-15T11:00:14.487Z,6.88
2023-04-15T11:02:54.653Z,6.05
2023-04-15T11:05:22.940Z,5.88
2023-04-15T11:07:55.051Z,6.68
2023-04-15T11:10:31.193Z,5.85
2023-04-15T11:12:59.503Z,6.40
2023-04-15T11:15:41.008Z,6.28
2023-04-15T11:18:11.966Z,5.80
2023-04-15T11:20:39.905Z,6.57
2023-04-15T11:23:08.200Z,5.75
2023-04-15T11:25:43.206Z,6.40
2023-04-15T11:28:11.403Z,6.60
2023-04-15T11:30:38.726Z,6.60
2023-04-15T11:33:09.597Z,6.43
2023-04-15T11:35:56.472Z,6.50
2023-04-15T11:38:22.977Z,6.30
2023-04-15T11:40:52.581Z,6.20
2023-04-15T11:43:23.032Z,5.00
2023-04-15T11:45:54.729Z,5.47
2023-04-15T11:48:23.668Z,5.20
2023-04-15T11:50:59.176Z,5.32
2023-04-15T11:53:37.159Z,5.13
2023-04-15T11:56:03.822Z,4.90
2023-04-15T11:58:30.318Z,4.43
2023-04-15T12:01:00.779Z,4.80
2023-04-15T12:03:29.747Z,3.90
2023-04-15T12:08:48.448Z,4.80
2023-04-15T12:11:16.501Z,4.40
2023-04-15T12:13:50.249Z,3.97
2023-04-15T12:16:20.386Z,4.22
2023-04-15T12:18:48.263Z,4.03
2023-04-15T12:21:14.810Z,4.13
2023-04-15T12:23:54.075Z,4.10
2023-04-15T12:28:56.326Z,4.13
2023-04-15T12:31:23.810Z,4.60
2023-04-15T12:33:50.932Z,4.50
2023-04-15T12:36:17.428Z,5.00
2023-04-15T12:38:43.909Z,4.57
2023-04-15T12:41:10.784Z,4.90
2023-04-15T12:43:37.445Z,4.88
2023-04-15T12:46:04.928Z,5.10
2023-04-15T12:48:31.557Z,5.45
2023-04-15T12:50:58.047Z,4.80
2023-04-15T12:53:24.570Z,4.13
2023-04-15T12:55:51.139Z,5.05
2023-04-15T12:58:17.676Z,5.18
2023-04-15T13:00:44.736Z,5.40
2023-04-15T13:03:11.407Z,5.30
2023-04-15T13:05:39.741Z,5.57
2023-04-15T13:08:06.739Z,5.03
2023-04-15T13:10:34.391Z,5.10
2023-04-15T13:13:04.094Z,4.90
2023-04-15T13:15:30.782Z,5.30
2023-04-15T13:17:57.378Z,5.78
2023-04-15T13:20:24.230Z,5.00
2023-04-15T13:22:52.404Z,5.07
2023-04-15T13:25:19.310Z,4.93
2023-04-15T13:27:45.944Z,4.97
2023-04-15T13:30:13.091Z,4.30
2023-04-15T13:32:39.666Z,4.70
2023-04-15T13:35:06.311Z,4.28
2023-04-15T13:37:32.871Z,4.60
2023-04-15T13:39:59.476Z,4.10
2023-04-15T13:42:27.265Z,4.28
2023-04-15T13:44:53.811Z,4.60
2023-04-15T13:47:20.346Z,4.30
2023-04-15T13:49:46.873Z,4.78
2023-04-15T13:52:13.648Z,4.45
2023-04-15T13:54:40.318Z,4.10
2023-04-15T13:57:07.286Z,4.50
2023-04-15T13:59:34.952Z,3.90
2023-04-15T14:02:02.115Z,4.65
2023-04-15T14:04:29.658Z,3.72
2023-04-15T14:06:59.760Z,3.30
2023-04-15T14:09:28.087Z,3.83
2023-04-15T14:11:54.678Z,4.45
2023-04-15T14:14:23.817Z,3.55
2023-04-15T14:16:50.373Z,3.20
2023-04-15T14:19:17.011Z,3.63
2023-04-15T14:21:43.731Z,3.40
2023-04-15T14:24:10.996Z,4.97
2023-04-15T14:26:37.671Z,3.30
2023-04-15T14:29:04.407Z,3.47
2023-04-15T14:31:31.069Z,3.30
2023-04-15T14:33:57.648Z,4.15
2023-04-15T14:36:24.116Z,3.00
2023-04-15T14:38:50.855Z,2.92
2023-04-15T14:41:17.387Z,3.40
2023-04-15T14:43:43.984Z,3.80
2023-04-15T14:46:11.302Z,3.60
2023-04-15T14:48:38.003Z,3.25
2023-04-15T14:51:04.711Z,3.10
2023-04-15T14:53:31.271Z,2.90
2023-04-15T14:55:57.829Z,2.97
2023-04-15T14:58:24.452Z,2.90
2023-04-15T15:00:50.997Z,2.90
2023-04-15T15:03:17.605Z,3.13
2023-04-15T15:05:46.364Z,3.08
2023-04-15T15:08:13.446Z,3.03
2023-04-15T15:10:49.297Z,3.22
2023-04-15T15:13:17.231Z,3.50
2023-04-15T15:15:43.928Z,3.70
2023-04-15T15:18:11.141Z,3.88
2023-04-15T15:20:37.708Z,4.05
2023-04-15T15:23:04.253Z,3.70
2023-04-15T15:25:30.792Z,4.00
2023-04-15T15:27:57.615Z,4.68
2023-04-15T15:30:24.215Z,3.78
2023-04-15T15:32:50.801Z,3.80
2023-04-15T15:35:17.358Z,3.70
2023-04-15T15:37:43.898Z,3.60
2023-04-15T15:40:12.113Z,3.58
2023-04-15T15:42:39.079Z,3.72
2023-04-15T15:45:05.994Z,3.60
2023-04-15T15:47:32.578Z,3.70
2023-04-15T15:50:00.493Z,3.97
2023-04-15T15:52:27.574Z,3.65
2023-04-15T15:54:54.109Z,3.50
2023-04-15T15:57:20.856Z,3.60
2023-04-15T15:59:47.340Z,3.35
2023-04-15T16:02:16.859Z,3.58
2023-04-15T16:04:43.516Z,3.53
2023-04-15T16:07:11.746Z,3.75
2023-04-15T16:09:40.423Z,3.75
2023-04-15T16:12:07.005Z,3.70
2023-04-15T16:14:33.647Z,3.70
2023-04-15T16:17:00.231Z,3.60
2023-04-15T16:19:26.880Z,3.60
2023-04-15T16:21:53.751Z,3.50
2023-04-15T16:24:20.328Z,3.63
2023-04-15T16:26:46.819Z,3.42
2023-04-15T16:29:13.264Z,3.60
2023-04-15T16:31:41.393Z,3.65
2023-04-15T16:34:08.028Z,3.92
2023-04-15T16:36:34.951Z,4.03
2023-04-15T16:39:01.984Z,4.00
2023-04-15T16:41:29.238Z,3.60
2023-04-15T16:43:57.952Z,4.32
2023-04-15T16:46:27.395Z,4.78
2023-04-15T16:48:54.124Z,4.18
2023-04-15T16:51:20.732Z,3.92
2023-04-15T16:53:47.363Z,4.25
2023-04-15T16:56:14.005Z,4.15
2023-04-15T16:58:40.687Z,4.70
2023-04-15T17:01:07.508Z,4.88
2023-04-15T17:03:34.326Z,4.53
2023-04-15T17:06:01.183Z,4.70
2023-04-15T17:08:27.708Z,4.20
2023-04-15T17:10:55.197Z,4.70
2023-04-15T17:13:21.791Z,4.55
2023-04-15T17:15:48.499Z,5.05
2023-04-15T17:18:15.050Z,4.70
2023-04-15T17:20:41.683Z,4.55
2023-04-15T17:23:08.317Z,4.80
2023-04-15T17:25:34.935Z,4.82
2023-04-15T17:28:01.658Z,4.75
2023-04-15T17:30:28.368Z,7.38
2023-04-15T17:32:55.192Z,14.90
2023-04-15T17:35:24.328Z,8.88
2023-04-15T17:37:51.405Z,5.38
2023-04-15T17:40:18.131Z,5.88
2023-04-15T17:42:44.698Z,5.72
2023-04-15T17:45:11.561Z,6.00
2023-04-15T17:47:38.210Z,5.50
2023-04-15T17:50:05.088Z,7.13
2023-04-15T17:52:31.775Z,5.20
2023-04-15T17:54:58.656Z,5.05
2023-04-15T17:57:25.331Z,5.82
2023-04-15T17:59:52.049Z,6.45
2023-04-15T18:02:18.727Z,6.07
2023-04-15T18:04:45.769Z,6.97
2023-04-15T18:07:12.409Z,6.10
2023-04-15T18:09:39.100Z,6.85
2023-04-15T18:12:07.513Z,7.95
2023-04-15T18:14:34.970Z,8.88
2023-04-15T18:17:04.645Z,7.25
2023-04-15T18:19:31.804Z,7.20
2023-04-15T18:22:00.431Z,6.88
2023-04-15T18:24:27.827Z,7.30
2023-04-15T18:26:54.365Z,6.47
2023-04-15T18:29:20.918Z,6.47
2023-04-15T18:31:47.614Z,6.97
2023-04-15T18:34:14.191Z,6.97
2023-04-15T18:36:40.761Z,6.43
2023-04-15T18:39:07.744Z,6.35
2023-04-15T18:41:34.623Z,5.93
2023-04-15T18:44:01.186Z,6.28
2023-04-15T18:46:28.471Z,5.60
2023-04-15T18:48:55.187Z,6.38
2023-04-15T18:51:21.725Z,6.28
2023-04-15T18:53:48.414Z,6.30
2023-04-15T18:56:15.005Z,6.50
2023-04-15T18:59:27.900Z,5.97
2023-04-15T19:01:29.608Z,6.00
2023-04-15T19:03:56.420Z,5.63
2023-04-15T19:06:23.271Z,6.32
2023-04-15T19:08:49.866Z,6.10
2023-04-15T19:11:16.597Z,6.43
2023-04-15T19:13:43.246Z,7.15
2023-04-15T19:16:09.994Z,6.43
2023-04-15T19:18:36.658Z,6.13
2023-04-15T19:21:04.065Z,6.47
2023-04-15T19:23:31.291Z,6.97
2023-04-15T19:25:58.731Z,7.30
2023-04-15T19:28:26.446Z,8.82
2023-04-15T19:30:53.505Z,7.80
2023-04-15T19:33:20.124Z,10.32
2023-04-15T19:35:49.870Z,7.90
2023-04-15T19:38:16.744Z,8.10
2023-04-15T19:40:43.393Z,7.50
2023-04-15T19:43:09.899Z,8.25
2023-04-15T19:45:36.471Z,8.57
2023-04-15T19:48:03.301Z,8.43
2023-04-15T19:50:30.082Z,8.43
2023-04-15T19:52:56.920Z,8.85
2023-04-15T19:55:23.610Z,11.73
2023-04-15T19:57:50.387Z,8.70
2023-04-15T20:00:17.074Z,9.57
2023-04-15T20:02:43.986Z,10.77
2023-04-15T20:05:10.749Z,8.82
2023-04-15T20:07:37.386Z,8.55
2023-04-15T20:10:12.325Z,9.23
2023-04-15T20:12:50.314Z,9.05
2023-04-15T20:15:20.100Z,9.15
2023-04-15T20:17:46.733Z,8.60
2023-04-15T20:20:13.282Z,9.32
2023-04-15T20:22:39.856Z,9.07
2023-04-15T20:25:06.899Z,9.15
2023-04-15T20:27:33.508Z,9.95
2023-04-15T20:30:00.463Z,9.55
2023-04-15T20:32:28.393Z,9.43
2023-04-15T20:34:55.172Z,9.52
2023-04-15T20:37:22.319Z,10.63
2023-04-15T20:39:49.170Z,9.95
2023-04-15T20:42:15.928Z,10.20
2023-04-15T20:44:42.423Z,9.90
2023-04-15T20:47:08.967Z,10.15
2023-04-15T20:49:39.656Z,9.68
2023-04-15T20:52:07.871Z,9.32
2023-04-15T20:54:34.632Z,10.00
2023-04-15T20:57:01.815Z,10.50
2023-04-15T20:59:28.508Z,9.48
2023-04-15T21:01:57.028Z,10.07
2023-04-15T21:04:24.491Z,10.33
2023-04-15T21:06:52.224Z,10.25
2023-04-15T21:09:19.115Z,9.88
2023-04-15T21:14:19.067Z,10.02
2023-04-15T21:16:46.282Z,10.93
2023-04-15T21:19:12.945Z,11.82
2023-04-15T21:21:39.507Z,10.68
2023-04-15T21:24:07.795Z,9.70
2023-04-15T21:26:35.987Z,10.02
2023-04-15T21:29:03.048Z,9.77
2023-04-15T21:31:30.096Z,9.80
2023-04-15T21:33:56.786Z,9.65
2023-04-15T21:36:23.353Z,9.30
2023-04-15T21:38:49.829Z,10.05
2023-04-15T21:41:16.419Z,9.73
2023-04-15T21:43:43.000Z,9.70
2023-04-15T21:46:24.430Z,9.60
2023-04-15T21:48:54.794Z,9.52
2023-04-15T21:51:21.569Z,9.65
2023-04-15T21:53:48.130Z,9.13
2023-04-15T21:56:14.715Z,9.15
2023-04-15T21:58:41.327Z,9.57
2023-04-15T22:01:07.991Z,8.95
2023-04-15T22:03:35.244Z,9.07
2023-04-15T22:06:05.413Z,9.45
2023-04-15T22:08:38.746Z,9.07
2023-04-15T22:11:28.669Z,9.00
2023-04-15T22:13:56.905Z,8.95
2023-04-15T22:16:25.131Z,9.05
2023-04-15T22:18:51.680Z,8.10
2023-04-15T22:21:18.369Z,8.43
2023-04-15T22:23:48.594Z,8.98
2023-04-15T22:26:15.265Z,9.20
2023-04-15T22:28:41.875Z,9.18
2023-04-15T22:31:08.456Z,8.73
2023-04-15T22:33:35.084Z,9.13
2023-04-15T22:36:01.614Z,8.65
2023-04-15T22:38:28.110Z,8.25
2023-04-15T22:40:54.612Z,8.70
2023-04-15T22:43:21.153Z,8.63
2023-04-15T22:45:51.338Z,9.10
2023-04-15T22:48:18.728Z,8.98
2023-04-15T22:50:45.378Z,8.77
2023-04-15T22:53:11.873Z,8.77
2023-04-15T22:55:38.350Z,8.65
2023-04-15T22:58:04.963Z,8.85
2023-04-15T23:00:31.512Z,8.43
2023-04-15T23:02:58.270Z,9.27
2023-04-15T23:05:24.894Z,9.48
2023-04-15T23:07:51.527Z,8.45
2023-04-15T23:10:17.985Z,8.73
2023-04-15T23:12:44.441Z,8.57
2023-04-15T23:15:11.593Z,9.68
2023-04-15T23:17:38.159Z,9.35
2023-04-15T23:20:05.006Z,9.40
2023-04-15T23:22:31.530Z,8.80
2023-04-15T23:24:58.020Z,8.93
2023-04-15T23:27:24.506Z,9.27
2023-04-15T23:29:51.216Z,9.27
2023-04-15T23:32:17.789Z,9.40
2023-04-15T23:34:44.243Z,9.20
2023-04-15T23:37:11.348Z,9.15
2023-04-15T23:39:37.803Z,9.52
2023-04-15T23:42:04.267Z,9.30
2023-04-15T23:44:30.714Z,9.68
2023-04-15T23:46:57.228Z,9.57
2023-04-15T23:49:23.797Z,10.25
2023-04-15T23:51:51.057Z,10.35
2023-04-15T23:54:17.545Z,10.80
2023-04-15T23:56:44.065Z,11.15
2023-04-15T23:59:10.696Z,11.13
